createdAt,value
2017-08-03T00:00:30.694Z,10.10
2017-08-03T00:02:59.054Z,7.60
2017-08-03T00:05:27.419Z,7.37
2017-08-03T00:07:54.984Z,9.10
2017-08-03T00:10:22.791Z,7.53
2017-08-03T00:12:50.353Z,8.13
2017-08-03T00:15:18.283Z,9.90
2017-08-03T00:17:46.125Z,9.60
2017-08-03T00:20:13.661Z,8.57
2017-08-03T00:22:41.253Z,8.20
2017-08-03T00:25:08.887Z,7.50
2017-08-03T00:27:36.409Z,11.50
2017-08-03T00:30:07.182Z,8.73
2017-08-03T00:32:34.725Z,11.43
2017-08-03T00:35:02.347Z,8.33
2017-08-03T00:37:29.964Z,11.23
2017-08-03T00:39:57.870Z,10.43
2017-08-03T00:42:25.631Z,8.63
2017-08-03T00:44:53.208Z,13.73
2017-08-03T00:47:20.795Z,8.87
2017-08-03T00:49:48.329Z,8.60
2017-08-03T00:52:15.935Z,8.83
2017-08-03T00:54:43.496Z,15.37
2017-08-03T00:57:11.262Z,13.50
2017-08-03T00:59:38.817Z,8.33
2017-08-03T01:02:06.823Z,8.80
2017-08-03T01:04:34.405Z,8.33
2017-08-03T01:07:01.966Z,10.23
2017-08-03T01:09:29.549Z,8.87
2017-08-03T01:11:57.095Z,10.13
2017-08-03T01:14:24.649Z,9.30
2017-08-03T01:16:52.271Z,8.53
2017-08-03T01:19:19.815Z,9.80
2017-08-03T01:21:47.369Z,10.57
2017-08-03T01:24:14.977Z,8.23
2017-08-03T01:26:42.517Z,8.40
2017-08-03T01:29:10.063Z,9.37
2017-08-03T01:31:37.630Z,7.93
2017-08-03T01:34:05.181Z,8.80
2017-08-03T01:36:32.743Z,9.47
2017-08-03T01:39:00.301Z,8.70
2017-08-03T01:41:28.276Z,11.17
2017-08-03T01:43:56.029Z,10.10
2017-08-03T01:46:23.624Z,11.07
2017-08-03T01:48:51.235Z,11.40
2017-08-03T01:51:18.900Z,8.40
2017-08-03T01:53:46.506Z,8.60
2017-08-03T01:56:14.040Z,9.30
2017-08-03T01:58:41.616Z,6.83
2017-08-03T02:01:09.214Z,7.50
2017-08-03T02:03:36.756Z,8.57
2017-08-03T02:06:04.399Z,7.47
2017-08-03T02:08:32.009Z,8.37
2017-08-03T02:10:59.568Z,8.93
2017-08-03T02:13:27.155Z,11.60
2017-08-03T02:15:54.709Z,9.70
2017-08-03T02:18:22.327Z,9.57
2017-08-03T02:20:49.954Z,7.50
2017-08-03T02:23:17.548Z,7.83
2017-08-03T02:25:45.239Z,8.47
2017-08-03T02:28:12.854Z,7.50
2017-08-03T02:30:40.478Z,13.03
2017-08-03T02:33:08.019Z,8.10
2017-08-03T02:35:35.646Z,7.90
2017-08-03T02:38:03.287Z,7.80
2017-08-03T02:40:30.896Z,10.90
2017-08-03T02:42:58.481Z,10.03
2017-08-03T02:45:26.090Z,8.23
2017-08-03T02:47:53.678Z,7.50
2017-08-03T02:50:21.286Z,7.73
2017-08-03T02:52:48.886Z,7.83
2017-08-03T02:55:16.467Z,8.37
2017-08-03T02:57:44.014Z,11.23
2017-08-03T03:00:11.638Z,7.70
2017-08-03T03:02:39.182Z,9.80
2017-08-03T03:05:06.745Z,9.20
2017-08-03T03:07:34.342Z,9.57
2017-08-03T03:10:01.939Z,9.87
2017-08-03T03:12:29.491Z,8.80
2017-08-03T03:14:57.089Z,10.67
2017-08-03T03:17:24.865Z,9.30
2017-08-03T03:19:52.383Z,9.53
2017-08-03T03:22:19.948Z,13.20
2017-08-03T03:24:47.529Z,13.03
2017-08-03T03:27:15.154Z,9.33
2017-08-03T03:29:42.720Z,10.43
2017-08-03T03:32:10.307Z,9.13
2017-08-03T03:34:37.873Z,9.60
2017-08-03T03:37:05.445Z,15.50
2017-08-03T03:39:33.046Z,11.83
2017-08-03T03:42:00.614Z,11.60
2017-08-03T03:44:28.219Z,9.10
2017-08-03T03:46:55.798Z,10.27
2017-08-03T03:49:23.328Z,13.73
2017-08-03T03:51:50.952Z,16.70
2017-08-03T03:54:18.578Z,26.63
2017-08-03T03:56:46.105Z,15.93
2017-08-03T03:59:13.700Z,17.87
2017-08-03T04:01:41.290Z,9.97
2017-08-03T04:04:08.814Z,11.03
2017-08-03T04:06:36.582Z,12.73
2017-08-03T04:09:04.212Z,13.00
2017-08-03T04:11:31.841Z,12.50
2017-08-03T04:13:59.627Z,15.47
2017-08-03T04:16:27.231Z,14.53
2017-08-03T04:18:54.815Z,17.10
2017-08-03T04:21:22.423Z,21.20
2017-08-03T04:23:50.069Z,20.37
2017-08-03T04:26:17.677Z,15.50
2017-08-03T04:28:45.571Z,18.13
2017-08-03T04:31:13.165Z,18.63
2017-08-03T04:33:40.749Z,15.10
2017-08-03T04:36:08.330Z,17.77
2017-08-03T04:38:35.925Z,16.87
2017-08-03T04:41:03.485Z,13.63
2017-08-03T04:43:31.073Z,15.60
2017-08-03T04:45:58.710Z,11.37
2017-08-03T04:48:26.226Z,13.87
2017-08-03T04:50:53.753Z,16.33
2017-08-03T04:53:21.372Z,13.57
2017-08-03T04:55:48.961Z,14.43
2017-08-03T04:58:16.520Z,17.93
2017-08-03T05:00:44.149Z,15.73
2017-08-03T05:03:11.709Z,15.67
2017-08-03T05:05:39.265Z,12.90
2017-08-03T05:08:06.848Z,17.10
2017-08-03T05:10:34.416Z,18.17
2017-08-03T05:13:01.990Z,13.83
2017-08-03T05:15:29.609Z,19.20
2017-08-03T05:17:57.146Z,13.17
2017-08-03T05:20:24.710Z,16.27
2017-08-03T05:22:52.335Z,13.23
2017-08-03T05:25:19.869Z,12.70
2017-08-03T05:27:50.839Z,18.33
2017-08-03T05:30:28.171Z,19.07
2017-08-03T05:32:55.787Z,18.33
2017-08-03T05:35:23.374Z,19.63
2017-08-03T05:37:50.961Z,16.00
2017-08-03T05:40:18.570Z,15.93
2017-08-03T05:42:46.165Z,14.90
2017-08-03T05:45:13.773Z,12.00
2017-08-03T05:47:41.313Z,15.00
2017-08-03T05:50:08.829Z,17.37
2017-08-03T05:52:36.433Z,16.93
2017-08-03T05:55:04.055Z,15.10
2017-08-03T05:57:31.630Z,13.17
2017-08-03T05:59:59.202Z,18.40
2017-08-03T06:02:26.839Z,14.17
2017-08-03T06:04:54.378Z,12.43
2017-08-03T06:07:21.952Z,14.10
2017-08-03T06:09:49.571Z,19.17
2017-08-03T06:12:17.350Z,14.67
2017-08-03T06:14:58.862Z,13.00
2017-08-03T06:17:26.395Z,13.33
2017-08-03T06:19:53.957Z,16.27
2017-08-03T06:22:21.531Z,19.40
2017-08-03T06:24:49.135Z,13.73
2017-08-03T06:27:16.653Z,17.13
2017-08-03T06:29:44.451Z,12.43
2017-08-03T06:32:12.047Z,16.30
2017-08-03T06:34:39.598Z,14.03
2017-08-03T06:37:07.147Z,11.87
2017-08-03T06:39:34.727Z,12.47
2017-08-03T06:42:03.609Z,16.47
2017-08-03T06:44:32.225Z,18.37
2017-08-03T06:47:00.429Z,11.80
2017-08-03T06:49:27.966Z,18.33
2017-08-03T06:51:55.504Z,13.97
2017-08-03T06:54:23.158Z,13.60
2017-08-03T06:56:50.767Z,13.70
2017-08-03T06:59:19.964Z,18.50
2017-08-03T07:01:47.604Z,16.43
2017-08-03T07:04:16.634Z,12.80
2017-08-03T07:06:44.165Z,14.37
2017-08-03T07:09:11.720Z,14.77
2017-08-03T07:11:39.285Z,15.13
2017-08-03T07:14:07.780Z,12.03
2017-08-03T07:16:35.872Z,12.50
2017-08-03T07:19:06.016Z,11.63
2017-08-03T07:21:33.528Z,10.60
2017-08-03T07:24:01.326Z,12.97
2017-08-03T07:26:29.810Z,13.53
2017-08-03T07:28:57.794Z,13.10
2017-08-03T07:31:27.135Z,13.23
2017-08-03T07:33:55.047Z,20.87
2017-08-03T07:36:22.861Z,13.13
2017-08-03T07:38:50.430Z,11.13
2017-08-03T07:41:18.180Z,10.30
2017-08-03T07:43:46.730Z,10.90
2017-08-03T07:46:16.825Z,10.33
2017-08-03T07:48:45.060Z,22.43
2017-08-03T07:51:14.366Z,11.70
2017-08-03T07:53:41.957Z,10.20
2017-08-03T07:56:09.918Z,9.87
2017-08-03T07:58:37.723Z,11.40
2017-08-03T08:01:05.678Z,15.67
2017-08-03T08:03:33.263Z,10.27
2017-08-03T08:06:00.849Z,14.50
2017-08-03T08:08:29.166Z,11.70
2017-08-03T08:10:56.771Z,14.87
2017-08-03T08:13:24.305Z,9.47
2017-08-03T08:15:52.865Z,10.27
2017-08-03T08:18:20.420Z,8.53
2017-08-03T08:20:48.302Z,16.30
2017-08-03T08:23:17.644Z,13.90
2017-08-03T08:25:45.335Z,10.97
2017-08-03T08:28:12.991Z,13.37
2017-08-03T08:30:40.752Z,9.50
2017-08-03T08:33:08.382Z,9.53
2017-08-03T08:35:36.075Z,13.40
2017-08-03T08:38:03.790Z,8.13
2017-08-03T08:40:31.431Z,7.33
2017-08-03T08:42:59.106Z,7.93
2017-08-03T08:45:26.756Z,8.10
2017-08-03T08:47:54.387Z,7.27
2017-08-03T08:50:22.075Z,9.33
2017-08-03T08:52:49.771Z,8.73
2017-08-03T08:55:17.494Z,8.10
2017-08-03T08:57:45.195Z,11.67
2017-08-03T09:00:12.873Z,6.60
2017-08-03T09:02:40.534Z,6.23
2017-08-03T09:05:08.214Z,7.13
2017-08-03T09:07:35.894Z,5.60
2017-08-03T09:10:03.573Z,5.93
2017-08-03T09:15:52.879Z,7.57
2017-08-03T09:18:21.380Z,6.57
2017-08-03T09:20:49.042Z,5.57
2017-08-03T09:23:16.714Z,5.00
2017-08-03T09:25:44.485Z,6.33
2017-08-03T09:28:12.133Z,5.57
2017-08-03T09:30:39.808Z,4.53
2017-08-03T09:36:28.145Z,7.07
2017-08-03T09:42:16.778Z,6.13
2017-08-03T09:44:44.842Z,6.07
2017-08-03T09:47:12.523Z,4.37
2017-08-03T09:49:40.239Z,5.70
2017-08-03T09:52:08.153Z,4.33
2017-08-03T09:54:35.789Z,5.30
2017-08-03T09:57:03.482Z,2.80
2017-08-03T09:59:31.247Z,2.80
2017-08-03T10:01:58.951Z,5.77
2017-08-03T10:04:26.606Z,3.20
2017-08-03T10:06:54.268Z,2.97
2017-08-03T10:09:21.948Z,3.63
2017-08-03T10:11:49.570Z,2.97
2017-08-03T10:14:18.190Z,6.17
2017-08-03T10:16:45.909Z,4.50
2017-08-03T10:19:13.540Z,3.70
2017-08-03T10:21:41.225Z,2.87
2017-08-03T10:24:08.932Z,3.00
2017-08-03T10:26:36.541Z,2.97
2017-08-03T10:29:04.190Z,4.13
2017-08-03T10:31:31.848Z,2.30
2017-08-03T10:33:59.510Z,4.63
2017-08-03T10:36:27.190Z,3.40
2017-08-03T10:42:15.594Z,2.50
2017-08-03T10:44:43.195Z,2.00
2017-08-03T10:47:10.788Z,2.50
2017-08-03T10:49:38.435Z,3.37
2017-08-03T10:52:06.115Z,1.90
2017-08-03T10:54:33.756Z,3.43
2017-08-03T10:57:01.445Z,2.20
2017-08-03T10:59:29.066Z,1.93
2017-08-03T11:01:56.706Z,2.43
2017-08-03T11:04:24.433Z,2.20
2017-08-03T11:06:52.093Z,1.93
2017-08-03T11:09:19.812Z,4.33
2017-08-03T11:11:47.492Z,2.90
2017-08-03T11:14:15.160Z,2.47
2017-08-03T11:16:42.886Z,2.30
2017-08-03T11:19:10.533Z,2.63
2017-08-03T11:21:38.133Z,2.90
2017-08-03T11:24:05.793Z,2.70
2017-08-03T11:26:33.443Z,2.30
2017-08-03T11:29:01.100Z,1.30
2017-08-03T11:31:28.762Z,2.10
2017-08-03T11:33:56.405Z,1.30
2017-08-03T11:36:24.039Z,1.50
2017-08-03T11:38:51.772Z,2.30
2017-08-03T11:41:19.533Z,2.23
2017-08-03T11:43:47.156Z,2.60
2017-08-03T11:46:14.838Z,2.10
2017-08-03T11:48:42.430Z,2.57
2017-08-03T11:51:10.044Z,3.50
2017-08-03T11:53:37.772Z,2.23
2017-08-03T11:56:05.444Z,1.70
2017-08-03T11:58:33.108Z,2.30
2017-08-03T12:01:00.792Z,4.20
2017-08-03T12:03:28.415Z,2.53
2017-08-03T12:05:56.092Z,3.23
2017-08-03T12:08:23.771Z,3.53
2017-08-03T12:10:51.403Z,3.07
2017-08-03T12:13:19.064Z,2.33
2017-08-03T12:15:46.725Z,3.97
2017-08-03T12:18:14.388Z,5.17
2017-08-03T12:20:42.004Z,3.47
2017-08-03T12:23:09.699Z,3.10
2017-08-03T12:25:37.360Z,5.60
2017-08-03T12:28:05.049Z,3.33
2017-08-03T12:30:32.786Z,4.20
2017-08-03T12:33:00.485Z,3.67
2017-08-03T12:35:28.100Z,3.30
2017-08-03T12:37:55.767Z,3.17
2017-08-03T12:40:23.487Z,3.90
2017-08-03T12:42:51.338Z,3.37
2017-08-03T12:45:19.073Z,2.80
2017-08-03T12:47:46.834Z,3.63
2017-08-03T12:50:14.480Z,7.03
2017-08-03T12:52:42.195Z,3.70
2017-08-03T12:55:09.836Z,3.60
2017-08-03T12:57:37.494Z,5.43
2017-08-03T13:00:08.179Z,3.83
2017-08-03T13:02:35.879Z,3.93
2017-08-03T13:05:03.561Z,4.60
2017-08-03T13:07:31.299Z,3.80
2017-08-03T13:09:59.011Z,3.10
2017-08-03T13:12:26.735Z,4.20
2017-08-03T13:14:54.425Z,5.43
2017-08-03T13:17:22.059Z,7.07
2017-08-03T13:19:49.791Z,3.33
2017-08-03T13:22:17.585Z,5.80
2017-08-03T13:24:45.246Z,4.50
2017-08-03T13:27:12.841Z,4.30
2017-08-03T13:29:40.513Z,7.77
2017-08-03T13:32:08.344Z,4.27
2017-08-03T13:34:36.114Z,6.27
2017-08-03T13:37:03.892Z,5.23
2017-08-03T13:39:31.618Z,5.57
2017-08-03T13:41:59.313Z,7.40
2017-08-03T13:44:27.095Z,6.20
2017-08-03T13:46:54.861Z,3.93
2017-08-03T13:49:22.604Z,6.40
2017-08-03T13:51:50.273Z,3.33
2017-08-03T13:54:18.951Z,4.43
2017-08-03T13:57:08.133Z,3.67
2017-08-03T13:59:35.859Z,8.23
2017-08-03T14:02:03.639Z,3.80
2017-08-03T14:04:31.371Z,7.50
2017-08-03T14:07:00.673Z,3.93
2017-08-03T14:09:28.420Z,5.50
2017-08-03T14:11:56.806Z,6.50
2017-08-03T14:14:24.458Z,5.40
2017-08-03T14:16:53.719Z,3.27
2017-08-03T14:19:21.737Z,3.00
2017-08-03T14:21:50.531Z,4.63
2017-08-03T14:24:25.249Z,3.83
2017-08-03T14:26:53.106Z,3.63
2017-08-03T14:29:20.780Z,4.60
2017-08-03T14:31:49.365Z,12.10
2017-08-03T14:34:18.055Z,5.40
2017-08-03T14:36:46.928Z,2.87
2017-08-03T14:42:35.911Z,3.30
2017-08-03T14:45:03.626Z,3.27
2017-08-03T14:47:31.264Z,3.50
2017-08-03T14:49:58.928Z,2.40
2017-08-03T14:52:26.608Z,2.57
2017-08-03T14:54:54.308Z,3.07
2017-08-03T14:57:22.816Z,3.50
2017-08-03T14:59:50.473Z,3.63
2017-08-03T15:02:19.053Z,7.50
2017-08-03T15:04:47.218Z,6.10
2017-08-03T15:07:14.915Z,3.40
2017-08-03T15:09:42.595Z,4.00
2017-08-03T15:12:10.329Z,4.20
2017-08-03T15:14:37.992Z,3.90
2017-08-03T15:17:06.429Z,4.40
2017-08-03T15:19:34.053Z,4.13
2017-08-03T15:22:01.785Z,7.63
2017-08-03T15:24:29.460Z,9.50
2017-08-03T15:26:57.201Z,4.03
2017-08-03T15:29:24.856Z,5.03
2017-08-03T15:31:52.509Z,4.33
2017-08-03T15:34:20.171Z,4.50
2017-08-03T15:36:47.867Z,4.20
2017-08-03T15:39:15.501Z,9.10
2017-08-03T15:41:43.165Z,5.47
2017-08-03T15:44:10.768Z,4.57
2017-08-03T15:46:38.491Z,6.07
2017-08-03T15:49:06.201Z,6.57
2017-08-03T15:51:33.855Z,5.50
2017-08-03T15:54:01.544Z,6.27
2017-08-03T15:56:29.199Z,5.60
2017-08-03T15:58:56.800Z,6.17
2017-08-03T16:01:24.510Z,5.00
2017-08-03T16:03:52.141Z,8.43
2017-08-03T16:06:19.812Z,5.00
2017-08-03T16:08:47.509Z,5.50
2017-08-03T16:11:15.130Z,5.07
2017-08-03T16:13:42.801Z,10.50
2017-08-03T16:16:10.559Z,11.10
2017-08-03T16:18:38.219Z,8.93
2017-08-03T16:21:05.849Z,8.40
2017-08-03T16:23:33.518Z,6.10
2017-08-03T16:26:01.220Z,12.27
2017-08-03T16:28:28.849Z,7.47
2017-08-03T16:30:56.592Z,6.03
2017-08-03T16:33:24.232Z,5.23
2017-08-03T16:35:52.713Z,5.90
2017-08-03T16:38:23.344Z,6.63
2017-08-03T16:40:50.990Z,6.20
2017-08-03T16:43:19.953Z,6.13
2017-08-03T16:45:47.703Z,11.27
2017-08-03T16:48:15.344Z,6.30
2017-08-03T16:50:42.976Z,9.10
2017-08-03T16:53:10.717Z,7.57
2017-08-03T16:55:39.079Z,7.73
2017-08-03T16:58:07.568Z,8.60
2017-08-03T17:00:35.312Z,10.77
2017-08-03T17:03:02.982Z,7.27
2017-08-03T17:05:30.663Z,7.30
2017-08-03T17:07:58.341Z,7.40
2017-08-03T17:10:25.985Z,8.03
2017-08-03T17:12:53.648Z,8.23
2017-08-03T17:15:21.403Z,10.20
2017-08-03T17:17:49.096Z,7.73
2017-08-03T17:20:16.750Z,7.30
2017-08-03T17:22:45.900Z,8.70
2017-08-03T17:27:46.417Z,9.00
2017-08-03T17:30:14.228Z,8.77
2017-08-03T17:32:42.019Z,15.07
2017-08-03T17:35:09.766Z,9.30
2017-08-03T17:37:37.434Z,9.97
2017-08-03T17:40:05.156Z,11.67
2017-08-03T17:42:32.795Z,13.23
2017-08-03T17:45:00.438Z,14.70
2017-08-03T17:47:28.204Z,10.87
2017-08-03T17:49:56.045Z,10.33
2017-08-03T17:52:23.677Z,8.90
2017-08-03T17:54:52.209Z,9.33
2017-08-03T17:57:19.865Z,15.27
2017-08-03T17:59:48.218Z,13.20
2017-08-03T18:02:15.973Z,16.00
2017-08-03T18:04:43.572Z,17.23
2017-08-03T18:07:11.169Z,9.80
2017-08-03T18:09:38.811Z,10.40
2017-08-03T18:12:06.479Z,11.27
2017-08-03T18:14:34.112Z,13.50
2017-08-03T18:17:01.778Z,17.93
2017-08-03T18:19:29.388Z,23.30
2017-08-03T18:21:56.948Z,18.93
2017-08-03T18:24:24.594Z,19.50
2017-08-03T18:26:52.387Z,19.50
2017-08-03T18:29:20.270Z,10.13
2017-08-03T18:31:48.793Z,9.50
2017-08-03T18:34:17.221Z,8.83
2017-08-03T18:36:45.759Z,13.50
2017-08-03T18:39:13.350Z,9.80
2017-08-03T18:41:40.992Z,9.60
2017-08-03T18:44:08.779Z,8.03
2017-08-03T18:46:37.422Z,9.97
2017-08-03T18:49:05.940Z,8.30
2017-08-03T18:51:33.702Z,12.03
2017-08-03T18:54:02.936Z,7.00
2017-08-03T18:56:30.598Z,10.13
2017-08-03T18:58:59.054Z,7.83
2017-08-03T19:01:27.531Z,10.00
2017-08-03T19:03:56.253Z,6.00
2017-08-03T19:06:24.098Z,8.07
2017-08-03T19:08:52.615Z,6.10
2017-08-03T19:11:21.074Z,5.70
2017-08-03T19:13:48.777Z,6.03
2017-08-03T19:16:16.436Z,9.20
2017-08-03T19:18:44.006Z,7.97
2017-08-03T19:21:11.667Z,12.10
2017-08-03T19:23:39.402Z,10.00
2017-08-03T19:26:07.026Z,8.43
2017-08-03T19:28:34.618Z,8.63
2017-08-03T19:31:02.211Z,6.57
2017-08-03T19:33:31.285Z,9.37
2017-08-03T19:35:59.049Z,7.20
2017-08-03T19:38:27.197Z,10.20
2017-08-03T19:40:55.570Z,5.40
2017-08-03T19:43:24.121Z,7.80
2017-08-03T19:45:52.691Z,6.73
2017-08-03T19:48:20.484Z,6.97
2017-08-03T19:50:48.117Z,5.80
2017-08-03T19:53:15.807Z,12.43
2017-08-03T19:55:43.365Z,5.60
2017-08-03T19:58:11.225Z,6.70
2017-08-03T20:00:38.898Z,10.37
2017-08-03T20:03:06.656Z,7.30
2017-08-03T20:05:42.072Z,5.93
2017-08-03T20:08:09.747Z,4.90
2017-08-03T20:10:44.225Z,6.57
2017-08-03T20:13:18.511Z,5.77
2017-08-03T20:15:46.984Z,6.90
2017-08-03T20:18:14.898Z,5.50
2017-08-03T20:20:42.546Z,5.47
2017-08-03T20:23:10.182Z,7.50
2017-08-03T20:25:39.635Z,8.70
2017-08-03T20:28:07.972Z,7.43
2017-08-03T20:30:35.634Z,5.83
2017-08-03T20:33:03.410Z,8.10
2017-08-03T20:35:31.015Z,5.20
2017-08-03T20:37:58.625Z,5.20
2017-08-03T20:40:26.210Z,7.70
2017-08-03T20:42:53.817Z,5.90
2017-08-03T20:47:54.136Z,5.73
2017-08-03T20:50:21.764Z,8.73
2017-08-03T20:52:49.341Z,11.47
2017-08-03T20:55:17.885Z,10.10
2017-08-03T20:57:45.567Z,9.50
2017-08-03T21:00:13.288Z,12.57
2017-08-03T21:02:40.877Z,12.33
2017-08-03T21:05:08.489Z,8.70
2017-08-03T21:07:36.310Z,10.50
2017-08-03T21:10:04.694Z,15.50
2017-08-03T21:12:32.590Z,18.27
2017-08-03T21:15:00.294Z,7.80
2017-08-03T21:17:29.866Z,8.53
2017-08-03T21:20:00.478Z,11.13
2017-08-03T21:22:32.460Z,15.23
2017-08-03T21:25:03.191Z,16.20
2017-08-03T21:27:35.342Z,7.87
2017-08-03T21:30:10.416Z,7.33
2017-08-03T21:32:39.496Z,13.43
2017-08-03T21:35:08.851Z,12.40
2017-08-03T21:37:39.668Z,8.93
2017-08-03T21:40:10.011Z,9.83
2017-08-03T21:42:41.717Z,10.10
2017-08-03T21:45:12.204Z,8.93
2017-08-03T21:47:41.833Z,8.80
2017-08-03T21:50:11.243Z,9.20
2017-08-03T21:52:42.305Z,8.23
2017-08-03T21:55:12.206Z,9.00
2017-08-03T21:57:41.224Z,9.00
2017-08-03T22:00:10.889Z,18.27
2017-08-03T22:02:41.676Z,8.97
2017-08-03T22:05:12.757Z,9.23
2017-08-03T22:07:44.715Z,9.03
2017-08-03T22:10:12.985Z,9.37
2017-08-03T22:12:43.496Z,11.57
2017-08-03T22:15:12.439Z,11.17
2017-08-03T22:17:42.430Z,8.33
2017-08-03T22:20:12.788Z,9.03
2017-08-03T22:22:41.312Z,7.50
2017-08-03T22:25:11.474Z,10.30
2017-08-03T22:27:40.609Z,7.67
2017-08-03T22:30:10.465Z,8.43
2017-08-03T22:32:41.262Z,13.40
2017-08-03T22:35:09.731Z,9.60
2017-08-03T22:37:39.184Z,8.20
2017-08-03T22:40:08.540Z,7.07
2017-08-03T22:42:37.253Z,8.97
2017-08-03T22:45:04.870Z,9.03
2017-08-03T22:47:32.488Z,7.90
2017-08-03T22:50:00.091Z,10.00
2017-08-03T22:52:28.079Z,8.07
2017-08-03T22:54:56.578Z,6.87
2017-08-03T22:57:26.811Z,7.73
2017-08-03T22:59:56.909Z,8.97
2017-08-03T23:02:26.895Z,13.87
2017-08-03T23:05:02.971Z,10.07
2017-08-03T23:07:32.384Z,11.33
2017-08-03T23:10:03.118Z,6.87
2017-08-03T23:12:34.564Z,12.43
2017-08-03T23:15:07.130Z,7.97
2017-08-03T23:17:38.289Z,9.20
2017-08-03T23:20:09.482Z,8.87
2017-08-03T23:22:38.955Z,7.30
2017-08-03T23:25:10.042Z,6.87
2017-08-03T23:27:39.712Z,7.43
2017-08-03T23:30:12.432Z,9.20
2017-08-03T23:32:41.725Z,6.80
2017-08-03T23:35:12.018Z,9.00
2017-08-03T23:37:40.502Z,9.83
2017-08-03T23:40:12.377Z,8.40
2017-08-03T23:42:41.475Z,7.53
2017-08-03T23:45:11.545Z,10.03
2017-08-03T23:47:43.764Z,9.40
2017-08-03T23:50:13.567Z,11.40
2017-08-03T23:52:43.559Z,9.33
2017-08-03T23:55:14.781Z,8.03
2017-08-03T23:57:44.001Z,8.60
